Highland Park, California
Current Conditions -  °F | °C
As of 4:47 PM on Monday 26 Jan 2015 (Local Time) from KCQT Reporting Station
Light Rain Light Rain  
Wind Chill: 63°   Ceiling: 8000
Heat Index: 63°   Visibility: 10mi
Dew Point: 46°   Wind: 9mph
Humidity: 54%   Direction: 100°E
Pressure: 30.06"   Gusts: NA
Location:  34.1146°N, 118.191°W
Report Text: KCQT 270047Z AUTO 10008KT 10SM -RA FEW044 FEW065 OVC080 17/08 A3006 RMK AO2 RAB2356 SLP179 P0000 T01720078 $
Loading
Personal Weather Stations






























Interactive Weather Map New forecast layout! Learn more

10-Day Weather Forecast

Advertisements
Track Severe Weather on mobile